Time;durP1;ratioP1;P1;durP2;ratioP2;P2;SDS_P1;SDS_P2;PMS_P1;PMS_P2;Temp;Humidity;BMP_temperature;BMP_pressure;BME280_temperature;BME280_humidity;BME280_pressure;Samples;Min_cycle;Max_cycle;Signal;HPM_P1;HPM_P2
2022/04/20 00:01:42;;;;;;;;;26.67;25.33;;;;;12.64;66.55;100497.16;4908699;29;45389;-82
2022/04/20 00:04:08;;;;;;;;;30.00;23.67;;;;;12.54;65.61;100489.16;4893327;29;47300;-82
2022/04/20 00:06:33;;;;;;;;;27.00;24.00;;;;;12.52;65.32;100487.34;4891713;29;44846;-82
2022/04/20 00:08:59;;;;;;;;;23.33;21.67;;;;;12.52;65.91;100492.69;4908090;29;45433;-82
2022/04/20 00:11:24;;;;;;;;;27.33;26.33;;;;;12.49;66.23;100487.38;4892721;29;45399;-82
2022/04/20 00:13:49;;;;;;;;;25.00;23.67;;;;;12.45;66.25;100485.59;4895499;28;48089;-82
2022/04/20 00:16:15;;;;;;;;;31.67;24.00;;;;;12.42;65.78;100481.13;4890609;29;45581;-82
2022/04/20 00:18:42;;;;;;;;;29.67;25.33;;;;;12.56;65.69;100490.06;4907909;29;45595;-83
2022/04/20 00:21:07;;;;;;;;;29.00;25.33;;;;;12.46;68.08;100498.03;4908232;29;45503;-82
2022/04/20 00:23:33;;;;;;;;;31.00;26.00;;;;;12.46;66.90;100492.69;4907554;29;46458;-81
2022/04/20 00:25:58;;;;;;;;;31.33;26.67;;;;;12.40;67.15;100480.22;4889058;29;45346;-81
2022/04/20 00:28:24;;;;;;;;;28.33;26.33;;;;;12.45;67.04;100499.81;4890156;29;45389;-82
2022/04/20 00:30:51;;;;;;;;;33.00;27.33;;;;;12.35;67.19;100474.88;4890775;29;45623;-82
2022/04/20 00:33:17;;;;;;;;;22.33;22.00;;;;;12.36;68.07;100486.44;4890060;29;47006;-82
2022/04/20 00:35:43;;;;;;;;;33.33;28.00;;;;;12.33;69.25;100478.44;4891304;29;44890;-82
2022/04/20 00:38:08;;;;;;;;;27.33;24.67;;;;;12.29;69.09;100482.00;4890467;29;45492;-82
2022/04/20 00:40:35;;;;;;;;;31.00;26.33;;;;;12.33;68.53;100481.09;4890647;29;45506;-83
2022/04/20 00:43:00;;;;;;;;;28.00;22.67;;;;;12.27;68.98;100483.75;4907304;29;46137;-83
2022/04/20 00:46:00;;;;;;;;;25.67;23.67;;;;;12.44;69.01;100482.00;4908228;29;45516;-82
2022/04/20 00:48:27;;;;;;;;;38.00;30.33;;;;;12.31;68.60;100480.22;4907676;29;45481;-82
2022/04/20 00:50:54;;;;;;;;;34.67;28.67;;;;;12.20;68.18;100470.41;4891469;29;45767;-82
2022/04/20 00:53:19;;;;;;;;;26.00;25.33;;;;;12.15;68.70;100471.28;4874855;29;46994;-82
2022/04/20 00:55:44;;;;;;;;;31.67;28.00;;;;;12.16;68.12;100473.94;4891442;29;45449;-82
2022/04/20 00:58:13;;;;;;;;;25.33;24.33;;;;;12.21;71.19;100465.97;4872297;29;45903;-83
2022/04/20 01:00:38;;;;;;;;;40.33;34.00;;;;;12.17;68.39;100473.06;4872228;29;45453;-83
2022/04/20 01:03:06;;;;;;;;;29.00;27.33;;;;;12.16;69.17;100455.28;4889063;28;45422;-81
2022/04/20 01:05:32;;;;;;;;;33.00;31.33;;;;;12.16;68.79;100467.75;4889311;29;44899;-83
2022/04/20 01:07:57;;;;;;;;;32.00;29.00;;;;;12.16;68.14;100465.94;4871831;29;45561;-82
2022/04/20 01:10:22;;;;;;;;;30.33;28.33;;;;;12.14;68.70;100456.16;4871654;29;45522;-82
2022/04/20 01:12:48;;;;;;;;;31.67;31.67;;;;;12.17;68.37;100465.06;4872235;29;48805;-82
2022/04/20 01:15:14;;;;;;;;;28.67;26.00;;;;;12.17;69.65;100456.16;4871586;29;45610;-82
2022/04/20 01:17:39;;;;;;;;;32.33;30.00;;;;;12.13;69.46;100459.72;4871137;29;45374;-83
2022/04/20 01:20:15;;;;;;;;;37.00;28.67;;;;;12.26;70.11;100464.22;4871534;29;45395;-83
2022/04/20 01:22:42;;;;;;;;;36.00;32.00;;;;;12.16;68.97;100467.75;4889468;29;46115;-83
2022/04/20 01:25:08;;;;;;;;;33.33;28.33;;;;;12.11;70.23;100458.81;4888796;29;45417;-82
2022/04/20 01:27:35;;;;;;;;;35.00;32.00;;;;;12.10;72.00;100462.34;4871717;29;45549;-81
2022/04/20 01:30:00;;;;;;;;;39.33;34.33;;;;;12.00;70.67;100450.81;4887558;29;45442;-82
2022/04/20 01:32:26;;;;;;;;;33.33;31.33;;;;;11.99;71.01;100459.66;4871417;29;47398;-83
2022/04/20 01:34:52;;;;;;;;;42.33;36.67;;;;;11.94;72.77;100449.00;4872944;29;45373;-83
2022/04/20 01:37:18;;;;;;;;;35.00;32.00;;;;;11.88;70.94;100448.06;4873513;29;45577;-83
2022/04/20 01:39:43;;;;;;;;;35.67;34.67;;;;;11.92;71.43;100456.09;4873794;29;44836;-82
2022/04/20 01:42:10;;;;;;;;;26.00;19.67;;;;;11.94;70.39;100462.31;4891532;29;45668;-83
2022/04/20 01:44:36;;;;;;;;;32.67;32.33;;;;;11.91;71.09;100462.28;4876143;29;45378;-82
2022/04/20 01:47:02;;;;;;;;;45.67;39.67;;;;;11.81;71.77;100449.78;4892726;29;45408;-83
2022/04/20 01:49:27;;;;;;;;;43.67;39.00;;;;;11.87;70.86;100462.25;4874375;29;45318;-83
2022/04/20 01:51:54;;;;;;;;;51.67;40.00;;;;;11.82;72.38;100448.91;4874121;29;47267;-83
2022/04/20 01:54:20;;;;;;;;;41.00;36.33;;;;;11.82;72.10;100446.25;4874316;29;45517;-82
2022/04/20 01:56:47;;;;;;;;;41.00;36.67;;;;;11.84;71.75;100451.59;4874164;29;44871;-83
2022/04/20 01:59:13;;;;;;;;;42.33;37.67;;;;;11.84;71.35;100456.91;4873974;29;45592;-82
2022/04/20 02:04:22;;;;;;;;;45.33;38.00;;;;;11.82;70.88;100452.47;4894588;29;45563;-82
2022/04/20 02:06:48;;;;;;;;;47.00;39.75;;;;;11.84;70.27;100457.81;4876890;29;45737;-82
2022/04/20 02:09:13;;;;;;;;;41.67;36.67;;;;;11.82;71.26;100457.78;4877189;29;44878;-82
2022/04/20 02:11:39;;;;;;;;;46.00;37.67;;;;;11.79;72.04;100452.44;4876441;29;46944;-82
2022/04/20 02:14:04;;;;;;;;;41.00;38.00;;;;;11.81;71.19;100456.03;4877392;29;45398;-82
2022/04/20 02:16:30;;;;;;;;;43.25;36.50;;;;;11.72;72.15;100437.31;4876054;29;45394;-81
2022/04/20 02:18:57;;;;;;;;;43.25;38.00;;;;;11.80;73.47;100440.91;4892689;28;45440;-82
2022/04/20 02:21:22;;;;;;;;;36.33;34.00;;;;;11.69;73.15;100437.28;4891764;28;45463;-83
2022/04/20 02:23:48;;;;;;;;;41.00;35.33;;;;;11.65;73.49;100430.16;4891949;28;45349;-82
2022/04/20 02:26:13;;;;;;;;;52.25;42.00;;;;;11.61;75.50;100431.03;4889812;29;45423;-83
2022/04/20 02:28:39;;;;;;;;;48.00;41.00;;;;;11.57;74.80;100431.91;4890226;29;45455;-84
2022/04/20 02:31:04;;;;;;;;;48.00;39.00;;;;;11.58;73.91;100431.94;4890414;29;46157;-83
2022/04/20 02:33:30;;;;;;;;;42.00;39.00;;;;;11.61;73.58;100425.72;4891628;29;45379;-83
2022/04/20 02:35:57;;;;;;;;;53.25;44.25;;;;;11.66;73.87;100423.97;4874710;29;45265;-83
2022/04/20 02:38:23;;;;;;;;;53.75;43.00;;;;;11.61;73.57;100418.63;4898814;29;45762;-83
2022/04/20 02:40:51;;;;;;;;;50.50;38.75;;;;;11.69;73.55;100420.44;4911435;29;46188;-83
2022/04/20 02:44:00;;;;;;;;;52.50;40.50;;;;;11.75;74.39;100424.00;4911365;29;45517;-83
2022/04/20 02:46:26;;;;;;;;;46.75;41.50;;;;;11.59;74.26;100416.81;4910238;29;45428;-83
2022/04/20 02:48:51;;;;;;;;;46.75;40.75;;;;;11.56;73.45;100406.19;4895022;29;45505;-83
2022/04/20 02:51:16;;;;;;;;;52.00;42.00;;;;;11.51;73.30;100399.91;4911820;29;46369;-83
2022/04/20 02:53:42;;;;;;;;;56.50;43.50;;;;;11.58;74.83;100404.41;4893708;29;45699;-82
2022/04/20 02:56:07;;;;;;;;;55.00;44.00;;;;;11.56;74.54;100411.50;4894431;29;45433;-82
2022/04/20 02:58:33;;;;;;;;;53.25;42.75;;;;;11.45;73.98;100391.91;4893133;29;45390;-82
2022/04/20 03:00:58;;;;;;;;;49.75;41.50;;;;;11.53;74.10;100401.72;4875569;29;46676;-82
2022/04/20 03:03:24;;;;;;;;;53.00;45.00;;;;;11.49;73.56;100397.28;4874880;29;45533;-82
2022/04/20 03:05:51;;;;;;;;;53.75;41.00;;;;;11.50;74.08;100392.84;4873447;29;45954;-82
2022/04/20 03:08:16;;;;;;;;;53.50;44.00;;;;;11.46;74.94;100389.25;4891439;29;45864;-83
2022/04/20 03:10:42;;;;;;;;;55.25;45.75;;;;;11.48;74.64;100397.25;4874661;29;46727;-83
2022/04/20 03:13:07;;;;;;;;;58.75;46.00;;;;;11.45;75.45;100391.91;4873526;29;45262;-82
2022/04/20 03:15:33;;;;;;;;;56.75;42.00;;;;;11.40;75.03;100384.78;4873884;29;44823;-82
2022/04/20 03:17:58;;;;;;;;;57.00;46.50;;;;;11.19;75.38;100348.31;4889257;29;44841;-82
2022/04/20 03:20:24;;;;;;;;;59.25;46.50;;;;;11.47;75.14;100401.69;4873371;29;45563;-81
2022/04/20 03:22:50;;;;;;;;;59.25;46.50;;;;;11.47;74.65;100401.69;4890051;29;45346;-82
2022/04/20 03:25:15;;;;;;;;;60.25;49.75;;;;;11.49;74.82;100399.03;4857617;29;45433;-82
2022/04/20 03:27:41;;;;;;;;;65.00;50.00;;;;;11.45;74.89;100394.56;4889478;29;45410;-82
2022/04/20 03:30:07;;;;;;;;;62.50;47.00;;;;;11.25;75.53;100375.81;4874350;29;47035;-82
2022/04/20 03:32:33;;;;;;;;;59.50;47.75;;;;;11.37;74.86;100405.19;4874349;29;45535;-83
2022/04/20 03:35:00;;;;;;;;;61.25;46.50;;;;;11.40;74.75;100408.75;4892220;29;45433;-83
2022/04/20 03:37:32;;;;;;;;;58.50;44.50;;;;;11.39;75.41;100414.97;4873866;29;44933;-83
2022/04/20 03:39:59;;;;;;;;;59.25;47.50;;;;;11.48;76.26;100419.44;4891725;29;46274;-83
2022/04/20 03:42:25;;;;;;;;;58.75;49.25;;;;;11.42;74.58;100406.09;4893900;28;45352;-82
2022/04/20 03:44:57;;;;;;;;;57.00;45.25;;;;;11.60;75.34;100422.16;4892296;28;45553;-83
2022/04/20 03:47:23;;;;;;;;;60.75;48.75;;;;;11.40;74.78;100410.53;4872407;29;45999;-82
2022/04/20 03:49:48;;;;;;;;;64.75;52.50;;;;;11.43;74.67;100425.63;4889637;29;45477;-82
2022/04/20 03:52:14;;;;;;;;;62.25;45.75;;;;;11.45;74.33;100423.84;4888394;29;45795;-82
2022/04/20 03:54:39;;;;;;;;;64.00;49.00;;;;;11.48;74.50;100424.78;4889075;29;45498;-82
2022/04/20 03:57:07;;;;;;;;;60.50;46.50;;;;;11.46;75.07;100425.66;4888254;29;45535;-83
2022/04/20 03:59:37;;;;;;;;;60.75;49.50;;;;;11.49;73.66;100429.22;4870708;29;47145;-83
2022/04/20 04:02:04;;;;;;;;;60.75;47.00;;;;;11.50;75.58;100416.81;4869663;29;45610;-83
2022/04/20 04:04:30;;;;;;;;;62.50;50.25;;;;;11.52;74.01;100415.03;4869819;29;45838;-83
2022/04/20 04:06:56;;;;;;;;;67.00;52.00;;;;;11.50;74.13;100406.16;4871404;29;45464;-82
2022/04/20 04:09:22;;;;;;;;;66.50;49.25;;;;;11.49;74.30;100404.34;4871262;29;47814;-82
2022/04/20 04:11:47;;;;;;;;;60.75;49.75;;;;;11.51;74.08;100413.25;4871590;29;45864;-82
2022/04/20 04:14:12;;;;;;;;;62.50;50.75;;;;;11.52;73.86;100401.72;4871843;29;45619;-82
2022/04/20 04:16:38;;;;;;;;;62.00;47.75;;;;;11.55;74.17;100404.38;4871520;29;45412;-82
2022/04/20 04:19:04;;;;;;;;;67.50;51.00;;;;;11.56;74.05;100400.84;4888532;29;45313;-82
2022/04/20 04:21:31;;;;;;;;;60.25;51.00;;;;;11.51;74.03;100397.25;4888808;29;45462;-83
2022/04/20 04:23:57;;;;;;;;;68.50;51.50;;;;;11.49;73.35;100409.69;4888383;29;45488;-82
2022/04/20 04:26:22;;;;;;;;;62.25;49.75;;;;;11.50;73.56;100425.66;4888930;29;45473;-81
2022/04/20 04:28:48;;;;;;;;;66.75;51.50;;;;;11.49;74.34;100428.31;4889828;29;45334;-82
2022/04/20 04:31:13;;;;;;;;;66.00;52.75;;;;;11.43;73.76;100420.31;4872798;29;45470;-82
2022/04/20 04:33:39;;;;;;;;;65.50;52.00;;;;;11.45;73.76;100422.06;4873795;29;45248;-82
2022/04/20 04:36:04;;;;;;;;;65.50;51.75;;;;;11.49;73.95;100428.31;4873149;29;45570;-82
2022/04/20 04:38:31;;;;;;;;;59.75;46.50;;;;;11.39;74.63;100412.31;4856176;29;48057;-82
2022/04/20 04:40:56;;;;;;;;;61.00;51.00;;;;;11.45;74.20;100426.53;4889786;29;45353;-81
2022/04/20 04:43:22;;;;;;;;;62.75;50.00;;;;;11.41;74.64;100426.53;4872174;29;45448;-82
2022/04/20 04:48:41;;;;;;;;;68.75;53.00;;;;;11.43;74.44;100425.63;4906615;29;45567;-81
2022/04/20 04:52:00;;;;;;;;;68.50;52.00;;;;;11.61;73.07;100431.03;4906538;29;45917;-82
2022/04/20 04:54:26;;;;;;;;;61.00;51.00;;;;;11.38;74.39;100429.16;4907483;29;45382;-82
2022/04/20 04:56:52;;;;;;;;;64.75;51.25;;;;;11.40;73.99;100437.16;4890186;29;45386;-83
2022/04/20 04:59:21;;;;;;;;;68.25;56.00;;;;;11.40;73.95;100419.41;4890935;29;47068;-83
2022/04/20 05:01:46;;;;;;;;;65.50;52.25;;;;;11.33;74.12;100425.59;4893162;29;45728;-83
2022/04/20 05:04:13;;;;;;;;;70.00;53.00;;;;;11.49;73.45;100436.31;4891713;29;45755;-82
2022/04/20 05:06:38;;;;;;;;;63.75;51.75;;;;;11.34;75.75;100424.69;4875703;29;45402;-82
2022/04/20 05:09:04;;;;;;;;;67.50;54.00;;;;;11.43;74.59;100436.28;4889652;29;44959;-81
2022/04/20 05:11:29;;;;;;;;;61.75;51.50;;;;;11.44;74.12;100436.28;4872397;29;45445;-83
2022/04/20 05:13:55;;;;;;;;;65.25;51.50;;;;;11.53;73.90;100443.44;4872252;29;45356;-81
2022/04/20 05:16:21;;;;;;;;;64.50;52.25;;;;;11.56;73.97;100430.16;4890961;29;44763;-82
2022/04/20 05:18:46;;;;;;;;;64.75;51.75;;;;;11.59;74.36;100435.47;4876475;29;48238;-83
2022/04/20 05:21:12;;;;;;;;;66.25;52.00;;;;;11.59;74.27;100438.13;4876974;29;45414;-82
2022/04/20 05:23:37;;;;;;;;;70.00;54.00;;;;;11.56;74.31;100432.81;4891347;29;45542;-82
2022/04/20 05:26:03;;;;;;;;;67.25;52.25;;;;;11.54;73.97;100440.78;4890489;29;45541;-83
2022/04/20 05:28:28;;;;;;;;;64.75;51.25;;;;;11.55;74.61;100439.91;4893138;28;45447;-84
2022/04/20 05:30:54;;;;;;;;;65.50;49.75;;;;;11.49;75.67;100438.97;4876805;29;45464;-83
2022/04/20 05:33:20;;;;;;;;;69.50;53.25;;;;;11.46;74.52;100436.31;4878209;29;45603;-84
2022/04/20 05:35:45;;;;;;;;;66.75;49.50;;;;;11.50;74.85;100446.97;4894121;29;44844;-83
2022/04/20 05:43:39;;;;;;;;;66.75;53.00;;;;;11.71;73.68;100448.84;4890713;29;45488;-83
2022/04/20 05:46:06;;;;;;;;;68.25;54.75;;;;;11.74;73.53;100438.22;4891859;29;45232;-82
2022/04/20 05:48:32;;;;;;;;;69.75;51.00;;;;;11.78;73.23;100434.69;4891087;29;45822;-83
2022/04/20 05:50:57;;;;;;;;;67.75;54.25;;;;;11.84;73.21;100443.59;4891604;29;45415;-83
2022/04/20 05:53:23;;;;;;;;;70.50;56.00;;;;;11.78;72.54;100421.34;4891883;29;45387;-83
2022/04/20 05:55:48;;;;;;;;;67.00;52.25;;;;;11.93;72.10;100438.31;4874806;29;45281;-83
2022/04/20 05:58:14;;;;;;;;;71.75;55.25;;;;;12.01;72.17;100431.25;4874942;29;45938;-82
2022/04/20 06:00:40;;;;;;;;;71.25;56.00;;;;;12.20;71.63;100433.09;4892835;29;45461;-82
2022/04/20 06:03:07;;;;;;;;;74.00;57.00;;;;;12.14;71.71;100432.16;4877317;29;44821;-83
2022/04/20 06:05:32;;;;;;;;;72.75;56.50;;;;;12.13;71.50;100433.94;4893767;29;44753;-83
2022/04/20 06:07:58;;;;;;;;;71.50;55.00;;;;;12.24;71.16;100433.06;4876891;29;46631;-83
2022/04/20 06:10:23;;;;;;;;;68.00;54.50;;;;;12.31;71.09;100424.22;4876849;28;45765;-84
2022/04/20 06:12:49;;;;;;;;;69.75;54.75;;;;;12.37;70.63;100419.78;4865531;29;45675;-84
2022/04/20 06:15:15;;;;;;;;;70.75;54.00;;;;;12.54;70.23;100426.91;4881327;29;46027;-83
2022/04/20 06:17:41;;;;;;;;;70.00;55.50;;;;;12.60;69.92;100410.91;4878558;29;46810;-83
2022/04/20 06:20:07;;;;;;;;;67.25;54.00;;;;;12.71;69.28;100435.81;4895919;29;45750;-84
2022/04/20 06:22:33;;;;;;;;;67.75;51.25;;;;;12.57;69.03;100438.47;4879828;29;44937;-81
2022/04/20 06:24:59;;;;;;;;;72.25;56.25;;;;;12.58;69.53;100434.94;4896089;29;45620;-82
2022/04/20 06:27:31;;;;;;;;;72.50;56.00;;;;;12.74;68.97;100442.94;4894254;28;45583;-83
2022/04/20 06:29:58;;;;;;;;;70.75;56.00;;;;;12.67;69.01;100433.16;4878383;29;44974;-83
2022/04/20 06:32:24;;;;;;;;;69.25;52.50;;;;;12.77;68.45;100434.94;4892953;29;45875;-83
2022/04/20 06:34:56;;;;;;;;;67.50;53.25;;;;;12.92;68.42;100431.38;4896965;29;45644;-83
2022/04/20 06:37:25;;;;;;;;;62.75;52.00;;;;;12.99;67.94;100418.03;4897018;29;45478;-84
2022/04/20 06:39:51;;;;;;;;;73.00;54.25;;;;;12.96;67.75;100418.00;4897363;29;45449;-84
2022/04/20 06:42:18;;;;;;;;;72.25;54.50;;;;;13.08;66.89;100427.78;4880459;29;45439;-84
2022/04/20 06:44:44;;;;;;;;;73.00;56.25;;;;;13.10;66.72;100417.13;4873513;29;45966;-82
2022/04/20 06:47:11;;;;;;;;;69.25;52.75;;;;;13.26;66.45;100426.88;4895526;29;45568;-82
2022/04/20 06:49:36;;;;;;;;;69.75;52.50;;;;;13.28;66.79;100430.44;4911486;28;45962;-82
2022/04/20 07:00:18;;;;;;;;;68.75;53.00;;;;;14.10;64.15;100424.81;4897542;29;45808;-83
2022/04/20 07:02:44;;;;;;;;;70.50;55.00;;;;;14.19;63.77;100416.75;4895675;29;45674;-83
2022/04/20 07:05:10;;;;;;;;;67.00;51.00;;;;;14.32;63.10;100422.88;4877671;29;45475;-83
2022/04/20 07:07:38;;;;;;;;;67.50;53.25;;;;;14.38;62.71;100412.16;4874874;29;46775;-83
2022/04/20 07:10:05;;;;;;;;;66.00;51.25;;;;;14.48;62.61;100429.94;4876203;29;45542;-83
2022/04/20 07:12:31;;;;;;;;;63.25;51.50;;;;;14.44;62.32;100419.25;4892807;29;45655;-83
2022/04/20 07:14:56;;;;;;;;;62.75;50.75;;;;;14.36;62.23;100395.22;4892496;29;45485;-82
2022/04/20 07:17:22;;;;;;;;;70.00;54.25;;;;;14.62;61.79;100408.44;4891724;29;46487;-82
2022/04/20 07:19:47;;;;;;;;;66.00;53.25;;;;;14.65;61.06;100402.19;4895480;29;45465;-82
2022/04/20 07:22:14;;;;;;;;;66.50;52.25;;;;;14.95;60.85;100431.38;4910757;29;45496;-83
2022/04/20 07:24:41;;;;;;;;;69.75;54.00;;;;;14.74;60.23;100391.41;4894960;29;45472;-83
2022/04/20 07:27:18;;;;;;;;;61.50;48.50;;;;;15.08;60.01;100402.69;4894334;29;46267;-84
2022/04/20 07:29:44;;;;;;;;;63.00;52.00;;;;;15.07;59.55;100389.28;4877683;29;45421;-83
2022/04/20 07:45:48;;;;;;;;;63.75;50.50;;;;;16.20;57.25;100433.56;4907789;28;44862;-83
2022/04/20 07:48:15;;;;;;;;;64.00;53.00;;;;;16.48;56.53;100432.25;4911525;29;45852;-84
2022/04/20 07:50:43;;;;;;;;;63.50;51.00;;;;;16.40;55.79;100425.22;4906768;28;45492;-82
2022/04/20 07:53:15;;;;;;;;;70.00;54.25;;;;;16.45;55.26;100424.25;4895502;29;45607;-81
2022/04/20 07:55:47;;;;;;;;;48.00;35.50;;;;;16.54;55.91;100441.13;4879326;29;45627;-82
2022/04/20 07:58:15;;;;;;;;;67.00;53.50;;;;;16.46;55.80;100426.94;4912310;28;45779;-83
2022/04/20 08:00:41;;;;;;;;;67.25;53.00;;;;;16.47;54.98;100396.47;4915353;28;45442;-82
2022/04/20 08:03:17;;;;;;;;;61.00;49.25;;;;;16.91;53.59;100418.19;4897264;29;45418;-80
2022/04/20 08:05:48;;;;;;;;;64.75;51.00;;;;;17.04;54.12;100432.28;4911812;29;46400;-82
2022/04/20 08:09:01;;;;;;;;;59.75;49.00;;;;;17.16;53.33;100429.38;4902637;29;45465;-82
2022/04/20 08:11:44;;;;;;;;;;;;;;;;;;;;;
2022/04/20 08:14:09;;;;;;;;;43.00;35.67;;;;;17.18;51.31;100433.81;4910382;29;71939;-83
2022/04/20 08:16:41;;;;;;;;;43.00;37.75;;;;;17.27;49.71;100411.28;4887469;29;45415;-84
2022/04/20 08:20:02;;;;;;;;;46.50;39.25;;;;;17.45;48.42;100425.25;4895718;28;45818;-81
2022/04/20 08:22:39;;;;;;;;;47.50;40.00;;;;;17.37;49.97;100412.88;4912504;28;45259;-82
2022/04/20 08:25:24;;;;;;;;;42.50;37.25;;;;;17.37;49.49;100394.03;4907401;29;45547;-82
2022/04/20 08:28:40;;;;;;;;;39.75;36.00;;;;;17.40;48.45;100385.03;4894330;29;45324;-81
2022/04/20 08:31:05;;;;;;;;;41.00;36.00;;;;;17.61;49.18;100410.59;4903463;29;45485;-83
2022/04/20 08:33:30;;;;;;;;;39.67;35.33;;;;;17.65;49.45;100392.59;4909780;29;45373;-82
2022/04/20 08:35:59;;;;;;;;;51.25;40.50;;;;;17.78;48.56;100386.06;4910834;29;45041;-83
2022/04/20 08:42:06;;;;;;;;;45.50;36.00;;;;;17.82;47.06;100405.72;4902456;29;45486;-82
2022/04/20 08:44:55;;;;;;;;;;;;;;;;;;;;;
2022/04/20 08:47:26;;;;;;;;;47.50;40.25;;;;;17.97;47.36;100410.78;4889638;29;73546;-82
2022/04/20 08:49:53;;;;;;;;;43.33;38.67;;;;;18.01;44.52;100420.56;4905696;29;45473;-83
2022/04/20 08:52:39;;;;;;;;;41.67;34.67;;;;;18.01;46.69;100423.25;4908178;29;44877;-82
2022/04/20 08:55:15;;;;;;;;;42.67;35.67;;;;;18.21;46.20;100425.50;4888778;29;46687;-82
2022/04/20 08:57:43;;;;;;;;;37.67;35.33;;;;;18.27;45.04;100405.63;4904489;29;44795;-83
2022/04/20 09:00:12;;;;;;;;;33.67;32.33;;;;;18.57;44.91;100429.16;4889309;29;45529;-85
2022/04/20 09:02:38;;;;;;;;;40.67;34.00;;;;;18.42;45.26;100407.97;4892546;29;45541;-82
2022/04/20 09:05:05;;;;;;;;;37.67;33.33;;;;;18.45;44.04;100399.81;4887651;29;46715;-82
2022/04/20 09:07:40;;;;;;;;;33.33;31.33;;;;;18.69;45.21;100437.88;4909122;29;45279;-84
2022/04/20 09:10:06;;;;;;;;;42.67;35.33;;;;;18.43;43.73;100398.09;4889600;29;45388;-83
2022/04/20 09:12:42;;;;;;;;;40.33;34.33;;;;;18.47;44.67;100387.19;4891925;29;45466;-84
2022/04/20 09:15:10;;;;;;;;;36.67;31.33;;;;;18.67;43.00;100404.69;4899486;29;45493;-83
2022/04/20 09:18:28;;;;;;;;;36.00;31.33;;;;;19.01;43.30;100425.41;4893163;29;45576;-83
2022/04/20 09:21:34;;;;;;;;;32.67;30.00;;;;;18.77;43.37;100384.69;4903146;29;45393;-83
2022/04/20 09:24:07;;;;;;;;;34.33;33.00;;;;;19.10;43.68;100419.78;4883947;29;44925;-83
2022/04/20 09:26:33;;;;;;;;;27.00;25.33;;;;;19.11;42.31;100422.44;4914346;29;45465;-83
2022/04/20 09:39:04;;;;;;;;;30.33;26.67;;;;;19.81;41.71;100402.56;4913810;29;45048;-83
2022/04/20 09:41:30;;;;;;;;;29.67;29.67;;;;;19.63;40.59;100368.88;4895335;29;45425;-83
2022/04/20 09:44:09;;;;;;;;;27.00;24.67;;;;;19.87;39.28;100399.66;4879173;29;44873;-82
2022/04/20 09:49:56;;;;;;;;;26.33;22.33;;;;;19.82;41.31;100409.72;4908963;29;45631;-82
2022/04/20 09:52:42;;;;;;;;;27.33;23.33;;;;;19.94;40.62;100403.09;4894835;29;45307;-84
2022/04/20 09:55:12;;;;;;;;;25.00;23.33;;;;;19.85;41.32;100403.34;4873597;29;45379;-83
2022/04/20 09:57:37;;;;;;;;;23.00;20.67;;;;;19.74;39.59;100396.47;4915789;29;45581;-82
2022/04/20 10:00:23;;;;;;;;;24.00;21.67;;;;;19.89;39.37;100399.63;4914460;29;45276;-84
2022/04/20 10:09:36;;;;;;;;;23.00;21.00;;;;;19.63;40.83;100385.03;4926567;28;45466;-82
2022/04/20 10:12:02;;;;;;;;;24.67;24.33;;;;;19.71;40.33;100387.56;4926559;28;46300;-82
2022/04/20 10:17:24;;;;;;;;;24.67;22.67;;;;;19.94;39.24;100384.19;4933505;28;46139;-83
2022/04/20 10:19:54;;;;;;;;;22.33;19.00;;;;;19.84;39.91;100358.44;4927242;28;45208;-82
2022/04/20 10:22:25;;;;;;;;;20.33;20.33;;;;;19.89;40.39;100369.94;4930536;28;45815;-82
2022/04/20 10:24:52;;;;;;;;;21.67;21.67;;;;;20.00;40.12;100367.81;4929424;28;44757;-82
2022/04/20 10:30:46;;;;;;;;;19.67;19.00;;;;;20.01;39.79;100372.25;4930475;28;45677;-83
2022/04/20 10:33:25;;;;;;;;;22.00;19.33;;;;;20.09;40.42;100372.91;4929854;28;47066;-82
2022/04/20 10:36:11;;;;;;;;;19.00;19.00;;;;;20.14;39.64;100373.66;4920820;28;45896;-84
2022/04/20 10:39:29;;;;;;;;;;;;;;;;;;;;;
2022/04/20 10:45:08;;;;;;;;;16.00;12.33;;;;;20.05;38.98;100362.25;4866511;29;45433;-83
2022/04/20 10:47:43;;;;;;;;;11.00;8.67;;;;;20.17;39.47;100361.88;4847405;29;45910;-82
2022/04/20 10:50:18;;;;;;;;;12.00;12.00;;;;;20.27;38.55;100362.47;4867834;29;44969;-85
2022/04/20 10:53:04;;;;;;;;;10.00;9.67;;;;;20.25;37.81;100349.00;4848769;29;45063;-82
2022/04/20 10:55:30;;;;;;;;;10.33;10.33;;;;;20.21;36.92;100359.97;4869797;29;46093;-82
2022/04/20 10:57:56;;;;;;;;;9.67;9.67;;;;;20.18;37.10;100348.34;4869259;29;45815;-82
2022/04/20 11:00:26;;;;;;;;;10.00;9.33;;;;;20.24;36.79;100352.66;4854525;29;46058;-83
2022/04/20 11:03:17;;;;;;;;;11.00;8.67;;;;;20.39;37.58;100348.56;4860791;29;45464;-85
2022/04/20 11:06:15;;;;;;;;;12.00;11.33;;;;;20.23;38.58;100293.28;4831596;29;45615;-85
2022/04/20 11:08:45;;;;;;;;;8.33;8.33;;;;;20.27;38.78;100300.38;4837136;29;45516;-83
2022/04/20 11:19:53;;;;;;;;;8.00;7.00;;;;;20.57;37.63;100334.44;4894576;29;45666;-82
2022/04/20 11:26:26;;;;;;;;;8.00;8.00;;;;;20.47;34.88;100288.91;4745598;30;45504;-84
2022/04/20 11:28:55;;;;;;;;;10.33;7.67;;;;;20.61;36.87;100329.84;4745740;30;45697;-83
2022/04/20 11:32:02;;;;;;;;;9.00;7.00;;;;;20.77;34.93;100332.94;4744273;30;45754;-83
2022/04/20 11:34:34;;;;;;;;;7.00;7.00;;;;;20.68;35.60;100315.22;4729612;29;46168;-84
2022/04/20 11:37:03;;;;;;;;;6.00;6.00;;;;;20.45;33.96;100291.63;4742183;30;45628;-82
2022/04/20 11:39:30;;;;;;;;;4.00;4.00;;;;;20.66;35.25;100308.06;4727651;30;46761;-82
2022/04/20 11:42:17;;;;;;;;;6.33;5.00;;;;;20.71;35.83;100292.59;4742284;30;45552;-83
2022/04/20 11:45:42;;;;;;;;;;;;;;;;;;;;;
2022/04/20 11:48:29;;;;;;;;;7.00;6.00;;;;;20.86;35.29;100307.38;4734933;29;65712;-83
2022/04/20 11:51:07;;;;;;;;;6.00;5.00;;;;;21.00;34.58;100325.81;4744222;30;47693;-84
2022/04/20 11:54:34;;;;;;;;;7.00;6.00;;;;;21.11;34.78;100302.88;4739599;30;45614;-84
2022/04/20 12:03:50;;;;;;;;;5.67;5.67;;;;;20.93;33.86;100280.09;4898849;29;45344;-85
2022/04/20 12:06:38;;;;;;;;;4.00;3.33;;;;;20.90;32.36;100244.16;4905073;29;45333;-85
2022/04/20 12:09:13;;;;;;;;;7.67;7.00;;;;;21.03;32.39;100263.53;4875094;29;44855;-85
2022/04/20 12:11:43;;;;;;;;;5.00;5.00;;;;;21.19;31.73;100278.25;4860150;29;45455;-84
2022/04/20 12:14:13;;;;;;;;;5.00;3.00;;;;;21.29;31.15;100306.72;4873073;29;45510;-84
2022/04/20 12:16:44;;;;;;;;;3.67;3.67;;;;;21.23;30.99;100290.72;4866418;29;45552;-85
2022/04/20 12:19:15;;;;;;;;;5.00;4.00;;;;;21.34;30.63;100299.31;4875703;29;44907;-84
2022/04/20 12:21:57;;;;;;;;;;;;;;;;;;;;;
2022/04/20 12:24:49;;;;;;;;;3.33;3.00;;;;;21.26;32.77;100265.38;4894898;29;74618;-86
2022/04/20 12:45:02;;;;;;;;;4.00;4.00;;;;;21.51;30.41;100273.47;4895583;29;46171;-86
2022/04/20 12:47:40;;;;;;;;;3.00;3.00;;;;;21.34;30.71;100234.38;4879239;29;45525;-84
2022/04/20 12:51:06;;;;;;;;;;;;;;;;;;;;;
2022/04/20 12:53:39;;;;;;;;;4.00;4.00;;;;;21.90;31.11;100275.56;4893202;29;73035;-85
2022/04/20 13:14:56;;;;;;;;;;;;;;;;;;;;;
2022/04/20 13:34:59;;;;;;;;;2.00;2.00;;;;;21.84;26.85;100218.97;4588863;31;45093;-85
2022/04/20 13:47:29;;;;;;;;;1.33;1.33;;;;;22.06;26.46;100241.50;4611430;30;45074;-84
2022/04/20 13:50:49;;;;;;;;;;;;;;;;;;;;;
2022/04/20 13:53:15;;;;;;;;;2.00;2.00;;;;;22.03;26.83;100238.91;4639136;30;65023;-85
2022/04/20 13:55:45;;;;;;;;;4.00;3.00;;;;;22.29;27.07;100255.91;4719826;29;46922;-86
2022/04/20 13:58:14;;;;;;;;;1.00;1.00;;;;;22.44;26.18;100246.25;4780907;29;45564;-84
2022/04/20 14:07:36;;;;;;;;;2.00;2.00;;;;;24.47;23.77;100215.88;4867559;28;45331;-85
2022/04/20 14:10:45;;;;;;;;;4.00;4.00;;;;;26.11;22.52;100251.41;4746891;29;45575;-84
2022/04/20 14:13:37;;;;;;;;;3.00;3.00;;;;;25.07;23.03;100206.41;4747933;29;45503;-84
2022/04/20 14:16:06;;;;;;;;;2.00;2.00;;;;;24.62;23.92;100232.38;4764514;29;44956;-86